createdAt,value
2023-12-23T00:03:33.647Z,0.75
2023-12-23T00:08:42.506Z,0.60
2023-12-23T00:13:51.212Z,0.47
2023-12-23T00:19:01.378Z,0.80
2023-12-23T00:24:10.290Z,0.68
2023-12-23T00:29:19.002Z,0.50
2023-12-23T00:34:29.433Z,0.65
2023-12-23T00:39:33.173Z,0.60
2023-12-23T00:44:41.954Z,0.55
2023-12-23T00:49:52.210Z,0.50
2023-12-23T00:54:56.295Z,0.40
2023-12-23T01:00:05.717Z,0.70
2023-12-23T01:05:15.998Z,0.50
2023-12-23T01:10:26.517Z,0.50
2023-12-23T01:15:35.195Z,0.50
2023-12-23T01:20:45.290Z,0.50
2023-12-23T01:25:54.039Z,0.60
2023-12-23T01:31:02.810Z,0.63
2023-12-23T01:36:13.135Z,0.60
2023-12-23T01:41:21.932Z,0.50
2023-12-23T01:46:31.184Z,0.70
2023-12-23T01:51:41.989Z,0.50
2023-12-23T01:56:52.095Z,0.93
2023-12-23T02:02:01.951Z,0.60
2023-12-23T02:07:07.282Z,0.60
2023-12-23T02:12:20.642Z,0.82
2023-12-23T02:17:29.451Z,0.43
2023-12-23T02:22:34.812Z,0.40
2023-12-23T02:27:54.810Z,0.50
2023-12-23T02:33:03.980Z,0.50
2023-12-23T02:38:14.241Z,0.47
2023-12-23T02:43:23.202Z,0.60
2023-12-23T02:48:27.156Z,0.60
2023-12-23T02:53:32.456Z,0.50
2023-12-23T02:58:41.237Z,0.60
2023-12-23T03:03:50.026Z,0.50
2023-12-23T03:08:55.152Z,0.50
2023-12-23T03:14:03.979Z,0.50
2023-12-23T03:19:10.602Z,0.57
2023-12-23T03:24:16.047Z,0.60
2023-12-23T03:29:24.780Z,0.50
2023-12-23T03:34:28.631Z,0.45
2023-12-23T03:39:33.893Z,0.40
2023-12-23T03:44:37.686Z,0.90
2023-12-23T03:49:43.513Z,0.70
2023-12-23T03:54:53.805Z,0.50
2023-12-23T03:59:58.457Z,0.50
2023-12-23T04:05:07.801Z,0.45
2023-12-23T04:10:18.537Z,0.60
2023-12-23T04:15:27.298Z,0.60
2023-12-23T04:20:36.020Z,0.50
2023-12-23T04:25:46.269Z,0.50
2023-12-23T04:30:58.148Z,0.63
2023-12-23T04:41:13.690Z,0.50
2023-12-23T04:46:18.357Z,0.47
2023-12-23T04:51:22.190Z,0.40
2023-12-23T04:56:32.400Z,0.50
2023-12-23T05:01:41.255Z,0.45
2023-12-23T05:06:50.006Z,0.50
2023-12-23T05:12:01.352Z,0.60
2023-12-23T05:17:10.060Z,0.40
2023-12-23T05:22:20.146Z,0.40
2023-12-23T05:27:30.466Z,1.45
2023-12-23T05:32:39.324Z,0.50
2023-12-23T05:37:48.151Z,0.60
2023-12-23T05:42:58.238Z,0.40
2023-12-23T05:48:07.828Z,0.40
2023-12-23T05:53:16.682Z,0.52
2023-12-23T05:58:26.818Z,0.50
2023-12-23T06:03:30.635Z,0.60
2023-12-23T06:08:39.341Z,0.63
2023-12-23T06:13:49.453Z,0.60
2023-12-23T06:18:58.194Z,0.40
2023-12-23T06:24:02.063Z,0.40
2023-12-23T06:29:07.216Z,0.52
2023-12-23T06:34:16.055Z,0.50
2023-12-23T06:39:19.854Z,0.68
2023-12-23T06:44:30.136Z,0.52
2023-12-23T06:49:39.033Z,0.70
2023-12-23T06:54:42.915Z,0.70
2023-12-23T06:59:53.481Z,0.77
2023-12-23T07:05:02.366Z,0.88
2023-12-23T07:10:08.061Z,0.55
2023-12-23T07:15:18.468Z,1.30
2023-12-23T07:20:22.324Z,0.65
2023-12-23T07:25:31.169Z,0.77
2023-12-23T07:30:46.160Z,1.70
2023-12-23T07:35:50.587Z,0.88
2023-12-23T07:40:59.481Z,0.70
2023-12-23T07:46:09.783Z,0.82
2023-12-23T07:51:13.566Z,1.13
2023-12-23T07:56:17.381Z,1.30
2023-12-23T08:01:27.670Z,0.80
2023-12-23T08:06:38.353Z,1.30
2023-12-23T08:11:42.270Z,0.70
2023-12-23T08:16:53.495Z,0.77
2023-12-23T08:21:57.286Z,1.05
2023-12-23T08:27:06.752Z,1.05
2023-12-23T08:32:16.979Z,1.10
2023-12-23T08:37:25.689Z,1.85
2023-12-23T08:42:34.470Z,1.58
2023-12-23T08:47:44.657Z,1.40
2023-12-23T08:52:53.816Z,1.20
2023-12-23T08:58:02.507Z,1.38
2023-12-23T09:03:12.635Z,1.00
2023-12-23T09:08:21.591Z,1.10
2023-12-23T09:13:30.410Z,0.70
2023-12-23T09:18:40.723Z,0.85
2023-12-23T09:23:49.924Z,1.55
2023-12-23T09:28:58.706Z,0.82
2023-12-23T09:34:08.905Z,0.80
2023-12-23T09:39:17.854Z,1.27
2023-12-23T09:44:26.608Z,1.42
2023-12-23T09:49:38.297Z,1.00
2023-12-23T09:54:53.233Z,0.98
2023-12-23T10:00:02.181Z,1.27
2023-12-23T10:05:16.977Z,1.02
2023-12-23T10:10:25.907Z,1.75
2023-12-23T10:15:34.904Z,2.05
2023-12-23T10:20:40.375Z,1.50
2023-12-23T10:25:49.159Z,1.70
2023-12-23T10:30:57.318Z,1.35
2023-12-23T10:36:08.661Z,1.40
2023-12-23T10:41:23.774Z,1.48
2023-12-23T10:46:28.376Z,1.55
2023-12-23T10:51:40.169Z,1.52
2023-12-23T10:56:46.287Z,1.52
2023-12-23T11:01:57.275Z,0.70
2023-12-23T11:07:08.651Z,1.20
2023-12-23T11:12:19.034Z,0.98
2023-12-23T11:17:29.686Z,0.52
2023-12-23T11:22:42.268Z,0.80
2023-12-23T11:27:45.981Z,0.80
2023-12-23T11:32:56.779Z,1.30
2023-12-23T11:38:07.150Z,0.73
2023-12-23T11:43:10.952Z,0.88
2023-12-23T11:48:22.512Z,1.27
2023-12-23T11:53:32.873Z,1.27
2023-12-23T11:58:41.824Z,1.20
2023-12-23T12:03:50.530Z,1.27
2023-12-23T12:08:57.118Z,1.95
2023-12-23T12:14:07.451Z,2.30
2023-12-23T12:19:11.583Z,1.90
2023-12-23T12:24:21.845Z,1.50
2023-12-23T12:29:30.904Z,2.47
2023-12-23T12:34:39.660Z,2.35
2023-12-23T12:39:45.101Z,1.88
2023-12-23T12:45:00.836Z,3.50
2023-12-23T12:50:10.557Z,1.88
2023-12-23T12:55:25.782Z,2.13
2023-12-23T13:00:34.619Z,2.53
2023-12-23T13:05:39.215Z,2.45
2023-12-23T13:10:47.440Z,2.15
2023-12-23T13:15:57.426Z,1.35
2023-12-23T13:21:01.280Z,1.67
2023-12-23T13:26:11.455Z,2.47
2023-12-23T13:31:15.300Z,3.00
2023-12-23T13:36:19.071Z,3.40
2023-12-23T13:41:29.295Z,3.90
2023-12-23T13:46:38.062Z,3.40
2023-12-23T13:51:41.786Z,3.08
2023-12-23T13:56:52.462Z,2.30
2023-12-23T14:02:01.269Z,1.90
2023-12-23T14:07:10.018Z,1.83
2023-12-23T14:12:20.175Z,1.95
2023-12-23T14:17:24.019Z,2.20
2023-12-23T14:22:32.868Z,2.60
2023-12-23T14:27:42.942Z,2.60
2023-12-23T14:32:51.802Z,2.60
2023-12-23T14:38:00.728Z,2.45
2023-12-23T14:43:11.002Z,2.30
2023-12-23T14:48:19.805Z,1.83
2023-12-23T14:53:29.268Z,1.80
2023-12-23T14:58:34.465Z,2.00
2023-12-23T15:03:43.196Z,1.90
2023-12-23T15:08:46.957Z,23.27
2023-12-23T15:13:57.102Z,4.88
2023-12-23T15:19:05.980Z,2.92
2023-12-23T15:24:14.855Z,2.30
2023-12-23T15:29:25.062Z,2.33
2023-12-23T15:34:33.855Z,2.35
2023-12-23T15:39:42.611Z,2.72
2023-12-23T15:44:53.752Z,4.38
2023-12-23T15:50:04.583Z,8.63
2023-12-23T15:55:13.533Z,46.47
2023-12-23T16:00:23.597Z,43.58
2023-12-23T16:05:32.464Z,15.63
2023-12-23T16:10:41.276Z,8.23
2023-12-23T16:15:51.390Z,6.90
2023-12-23T16:21:00.162Z,9.88
2023-12-23T16:26:14.985Z,12.40
2023-12-23T16:31:25.342Z,15.70
2023-12-23T16:36:34.170Z,7.53
2023-12-23T16:41:42.961Z,9.90
2023-12-23T16:46:48.214Z,6.68
2023-12-23T16:51:52.201Z,5.20
2023-12-23T16:56:56.015Z,5.03
2023-12-23T17:02:01.644Z,14.38
2023-12-23T17:07:05.720Z,11.82
2023-12-23T17:12:09.681Z,10.45
2023-12-23T17:17:15.174Z,5.00
2023-12-23T17:22:19.513Z,4.20
2023-12-23T17:27:23.278Z,4.10
2023-12-23T17:32:28.583Z,2.67
2023-12-23T17:37:32.671Z,3.60
2023-12-23T17:42:36.408Z,3.05
2023-12-23T17:47:42.790Z,4.30
2023-12-23T17:52:49.053Z,6.25
2023-12-23T17:57:58.004Z,7.05
2023-12-23T18:03:08.153Z,6.35
2023-12-23T18:08:16.860Z,5.38
2023-12-23T18:13:25.624Z,4.03
2023-12-23T18:18:30.863Z,6.38
2023-12-23T18:23:39.756Z,9.93
2023-12-23T18:28:48.636Z,17.65
2023-12-23T18:33:55.559Z,10.60
2023-12-23T18:39:04.475Z,11.90
2023-12-23T18:44:13.558Z,11.70
2023-12-23T18:49:18.677Z,13.20
2023-12-23T18:54:27.430Z,9.55
2023-12-23T18:59:36.248Z,6.68
2023-12-23T19:04:41.780Z,5.63
2023-12-23T19:09:47.113Z,5.30
2023-12-23T19:14:55.833Z,4.03
2023-12-23T19:20:04.143Z,5.35
2023-12-23T19:25:13.126Z,5.50
2023-12-23T19:30:17.128Z,6.82
2023-12-23T19:35:27.282Z,9.73
2023-12-23T19:40:36.473Z,11.80
2023-12-23T19:45:45.158Z,9.75
2023-12-23T19:50:55.284Z,9.05
2023-12-23T19:56:04.216Z,10.27
2023-12-23T20:01:13.092Z,8.60
2023-12-23T20:06:23.523Z,8.63
2023-12-23T20:11:32.351Z,6.53
2023-12-23T20:16:41.120Z,7.20
2023-12-23T20:21:51.692Z,5.90
2023-12-23T20:27:02.993Z,5.63
2023-12-23T20:32:13.665Z,4.88
2023-12-23T20:37:23.695Z,4.60
2023-12-23T20:42:32.648Z,4.75
2023-12-23T20:47:41.666Z,3.65
2023-12-23T20:52:52.826Z,4.07
2023-12-23T20:58:02.921Z,2.72
2023-12-23T21:03:11.881Z,3.97
2023-12-23T21:08:17.124Z,3.40
2023-12-23T21:13:25.892Z,3.17
2023-12-23T21:18:34.688Z,2.95
2023-12-23T21:23:44.922Z,1.90
2023-12-23T21:28:54.132Z,1.85
2023-12-23T21:34:03.001Z,1.60
2023-12-23T21:39:13.219Z,1.80
2023-12-23T21:44:21.958Z,1.90
2023-12-23T21:49:30.964Z,1.65
2023-12-23T21:54:36.288Z,1.67
2023-12-23T21:59:45.503Z,1.60
2023-12-23T22:04:54.359Z,1.50
2023-12-23T22:10:04.857Z,2.65
2023-12-23T22:15:14.675Z,2.83
2023-12-23T22:20:23.740Z,1.67
2023-12-23T22:25:34.016Z,2.00
2023-12-23T22:30:43.115Z,1.73
2023-12-23T22:35:51.908Z,1.63
2023-12-23T22:40:57.685Z,2.10
2023-12-23T22:46:01.557Z,1.45
2023-12-23T22:51:07.654Z,3.80
2023-12-23T22:56:18.211Z,2.50
2023-12-23T23:01:22.095Z,27.48
2023-12-23T23:06:32.416Z,4.90
2023-12-23T23:11:42.655Z,5.57
2023-12-23T23:16:47.190Z,3.17
2023-12-23T23:21:50.893Z,12.80
2023-12-23T23:27:01.008Z,4.82
2023-12-23T23:32:05.197Z,4.40
2023-12-23T23:37:09.023Z,3.70
2023-12-23T23:42:19.282Z,10.23
2023-12-23T23:47:30.715Z,4.32
2023-12-23T23:52:39.748Z,3.67
2023-12-23T23:57:49.971Z,7.72
